sensor_id;sensor_type;location;lat;lon;timestamp;P1;durP1;ratioP1;P2;durP2;ratioP2
60078;SDS011;45951;45.824;8.824;2022-12-07T00:05:34;5.30;;;2.58;;
60078;SDS011;45951;45.824;8.824;2022-12-07T00:11:35;4.10;;;2.35;;
60078;SDS011;45951;45.824;8.824;2022-12-07T00:17:35;4.43;;;2.38;;
60078;SDS011;45951;45.824;8.824;2022-12-07T00:23:36;4.55;;;2.63;;
60078;SDS011;45951;45.824;8.824;2022-12-07T00:29:36;4.70;;;2.65;;
60078;SDS011;45951;45.824;8.824;2022-12-07T00:35:37;4.00;;;2.60;;
60078;SDS011;45951;45.824;8.824;2022-12-07T00:41:37;4.82;;;3.00;;
60078;SDS011;45951;45.824;8.824;2022-12-07T00:47:37;4.43;;;3.03;;
60078;SDS011;45951;45.824;8.824;2022-12-07T00:53:38;5.00;;;2.88;;
60078;SDS011;45951;45.824;8.824;2022-12-07T00:59:38;5.07;;;2.63;;
60078;SDS011;45951;45.824;8.824;2022-12-07T01:05:39;5.10;;;2.60;;
60078;SDS011;45951;45.824;8.824;2022-12-07T01:11:39;5.05;;;2.67;;
60078;SDS011;45951;45.824;8.824;2022-12-07T01:17:40;4.53;;;2.50;;
60078;SDS011;45951;45.824;8.824;2022-12-07T01:23:40;5.18;;;2.90;;
60078;SDS011;45951;45.824;8.824;2022-12-07T01:29:40;5.13;;;2.97;;
60078;SDS011;45951;45.824;8.824;2022-12-07T01:35:41;3.95;;;2.40;;
60078;SDS011;45951;45.824;8.824;2022-12-07T01:41:41;2.90;;;1.90;;
60078;SDS011;45951;45.824;8.824;2022-12-07T01:47:43;4.03;;;2.10;;
60078;SDS011;45951;45.824;8.824;2022-12-07T01:53:47;3.35;;;1.80;;
60078;SDS011;45951;45.824;8.824;2022-12-07T01:59:48;2.90;;;1.73;;
60078;SDS011;45951;45.824;8.824;2022-12-07T02:05:50;3.72;;;2.13;;
60078;SDS011;45951;45.824;8.824;2022-12-07T02:11:51;3.22;;;1.80;;
60078;SDS011;45951;45.824;8.824;2022-12-07T02:17:55;4.00;;;1.80;;
60078;SDS011;45951;45.824;8.824;2022-12-07T02:30:37;3.17;;;2.13;;
60078;SDS011;45951;45.824;8.824;2022-12-07T02:36:42;3.53;;;2.10;;
60078;SDS011;45951;45.824;8.824;2022-12-07T02:42:46;2.97;;;1.83;;
60078;SDS011;45951;45.824;8.824;2022-12-07T02:48:49;4.22;;;2.10;;
60078;SDS011;45951;45.824;8.824;2022-12-07T02:54:50;3.58;;;2.03;;
60078;SDS011;45951;45.824;8.824;2022-12-07T03:00:52;3.15;;;2.20;;
60078;SDS011;45951;45.824;8.824;2022-12-07T03:07:05;3.92;;;2.30;;
60078;SDS011;45951;45.824;8.824;2022-12-07T03:13:13;5.22;;;2.40;;
60078;SDS011;45951;45.824;8.824;2022-12-07T03:19:18;2.45;;;1.67;;
60078;SDS011;45951;45.824;8.824;2022-12-07T03:25:20;4.15;;;2.08;;
60078;SDS011;45951;45.824;8.824;2022-12-07T03:31:22;4.70;;;2.60;;
60078;SDS011;45951;45.824;8.824;2022-12-07T03:43:36;4.57;;;2.40;;
60078;SDS011;45951;45.824;8.824;2022-12-07T03:49:40;4.55;;;2.45;;
60078;SDS011;45951;45.824;8.824;2022-12-07T04:01:44;4.05;;;2.22;;
60078;SDS011;45951;45.824;8.824;2022-12-07T04:07:45;3.75;;;2.20;;
60078;SDS011;45951;45.824;8.824;2022-12-07T04:13:46;3.53;;;1.63;;
60078;SDS011;45951;45.824;8.824;2022-12-07T04:20:05;3.50;;;2.17;;
60078;SDS011;45951;45.824;8.824;2022-12-07T04:26:06;4.03;;;2.20;;
60078;SDS011;45951;45.824;8.824;2022-12-07T04:32:07;3.75;;;2.35;;
60078;SDS011;45951;45.824;8.824;2022-12-07T04:38:07;5.22;;;2.90;;
60078;SDS011;45951;45.824;8.824;2022-12-07T04:44:07;5.85;;;3.00;;
60078;SDS011;45951;45.824;8.824;2022-12-07T04:50:09;5.20;;;2.58;;
60078;SDS011;45951;45.824;8.824;2022-12-07T04:56:09;5.63;;;3.22;;
60078;SDS011;45951;45.824;8.824;2022-12-07T05:02:09;6.20;;;3.58;;
60078;SDS011;45951;45.824;8.824;2022-12-07T05:08:10;5.43;;;3.58;;
60078;SDS011;45951;45.824;8.824;2022-12-07T05:20:17;6.32;;;3.40;;
60078;SDS011;45951;45.824;8.824;2022-12-07T05:26:18;4.68;;;2.97;;
60078;SDS011;45951;45.824;8.824;2022-12-07T05:32:18;5.97;;;2.40;;
60078;SDS011;45951;45.824;8.824;2022-12-07T05:38:18;3.83;;;2.35;;
60078;SDS011;45951;45.824;8.824;2022-12-07T05:44:19;4.70;;;2.35;;
60078;SDS011;45951;45.824;8.824;2022-12-07T05:50:19;3.03;;;2.15;;
60078;SDS011;45951;45.824;8.824;2022-12-07T05:56:19;3.28;;;1.90;;
60078;SDS011;45951;45.824;8.824;2022-12-07T06:02:20;3.55;;;2.20;;
60078;SDS011;45951;45.824;8.824;2022-12-07T06:08:20;6.88;;;3.17;;
60078;SDS011;45951;45.824;8.824;2022-12-07T06:14:20;9.48;;;4.38;;
60078;SDS011;45951;45.824;8.824;2022-12-07T06:20:21;10.45;;;3.10;;
60078;SDS011;45951;45.824;8.824;2022-12-07T06:26:21;6.38;;;2.35;;
60078;SDS011;45951;45.824;8.824;2022-12-07T06:32:22;5.30;;;2.90;;
60078;SDS011;45951;45.824;8.824;2022-12-07T06:38:22;5.60;;;2.65;;
60078;SDS011;45951;45.824;8.824;2022-12-07T06:44:22;5.00;;;2.90;;
60078;SDS011;45951;45.824;8.824;2022-12-07T06:50:23;5.30;;;2.90;;
60078;SDS011;45951;45.824;8.824;2022-12-07T06:56:23;8.80;;;4.70;;
60078;SDS011;45951;45.824;8.824;2022-12-07T07:02:24;8.43;;;4.28;;
60078;SDS011;45951;45.824;8.824;2022-12-07T07:08:24;8.68;;;4.28;;
60078;SDS011;45951;45.824;8.824;2022-12-07T07:14:24;9.73;;;6.05;;
60078;SDS011;45951;45.824;8.824;2022-12-07T07:20:25;10.27;;;6.25;;
60078;SDS011;45951;45.824;8.824;2022-12-07T07:26:25;8.02;;;5.20;;
60078;SDS011;45951;45.824;8.824;2022-12-07T07:32:25;7.50;;;3.95;;
60078;SDS011;45951;45.824;8.824;2022-12-07T07:38:26;6.75;;;3.92;;
60078;SDS011;45951;45.824;8.824;2022-12-07T07:44:26;6.10;;;3.53;;
60078;SDS011;45951;45.824;8.824;2022-12-07T07:50:26;8.35;;;4.88;;
60078;SDS011;45951;45.824;8.824;2022-12-07T07:56:26;7.85;;;4.50;;
60078;SDS011;45951;45.824;8.824;2022-12-07T08:02:28;7.65;;;4.82;;
60078;SDS011;45951;45.824;8.824;2022-12-07T08:08:29;7.78;;;4.63;;
60078;SDS011;45951;45.824;8.824;2022-12-07T08:14:30;7.35;;;3.70;;
60078;SDS011;45951;45.824;8.824;2022-12-07T08:20:31;5.85;;;3.00;;
60078;SDS011;45951;45.824;8.824;2022-12-07T08:26:32;6.28;;;3.47;;
60078;SDS011;45951;45.824;8.824;2022-12-07T08:32:33;6.00;;;3.85;;
60078;SDS011;45951;45.824;8.824;2022-12-07T08:38:34;6.38;;;4.00;;
60078;SDS011;45951;45.824;8.824;2022-12-07T08:44:35;8.60;;;4.40;;
60078;SDS011;45951;45.824;8.824;2022-12-07T08:50:36;7.13;;;4.65;;
60078;SDS011;45951;45.824;8.824;2022-12-07T08:56:37;6.53;;;4.63;;
60078;SDS011;45951;45.824;8.824;2022-12-07T09:02:37;6.10;;;3.75;;
60078;SDS011;45951;45.824;8.824;2022-12-07T09:08:39;5.45;;;3.42;;
60078;SDS011;45951;45.824;8.824;2022-12-07T09:14:41;6.00;;;3.22;;
60078;SDS011;45951;45.824;8.824;2022-12-07T09:20:41;5.03;;;3.60;;
60078;SDS011;45951;45.824;8.824;2022-12-07T09:26:42;7.85;;;4.18;;
60078;SDS011;45951;45.824;8.824;2022-12-07T09:32:42;5.82;;;3.42;;
60078;SDS011;45951;45.824;8.824;2022-12-07T09:38:42;5.20;;;3.38;;
60078;SDS011;45951;45.824;8.824;2022-12-07T09:44:43;6.20;;;3.72;;
60078;SDS011;45951;45.824;8.824;2022-12-07T09:50:43;7.07;;;4.30;;
60078;SDS011;45951;45.824;8.824;2022-12-07T09:56:43;10.90;;;5.07;;
60078;SDS011;45951;45.824;8.824;2022-12-07T10:02:46;7.88;;;4.63;;
60078;SDS011;45951;45.824;8.824;2022-12-07T10:08:52;9.55;;;7.78;;
60078;SDS011;45951;45.824;8.824;2022-12-07T10:14:56;7.30;;;4.07;;
60078;SDS011;45951;45.824;8.824;2022-12-07T10:27:03;6.65;;;4.03;;
60078;SDS011;45951;45.824;8.824;2022-12-07T10:33:03;8.35;;;6.57;;
60078;SDS011;45951;45.824;8.824;2022-12-07T10:39:21;9.48;;;6.07;;
60078;SDS011;45951;45.824;8.824;2022-12-07T10:45:22;6.47;;;4.00;;
60078;SDS011;45951;45.824;8.824;2022-12-07T10:51:27;8.65;;;4.70;;
60078;SDS011;45951;45.824;8.824;2022-12-07T11:10:38;9.10;;;5.30;;
60078;SDS011;45951;45.824;8.824;2022-12-07T11:17:09;7.53;;;4.90;;
60078;SDS011;45951;45.824;8.824;2022-12-07T11:29:48;30.50;;;19.10;;
60078;SDS011;45951;45.824;8.824;2022-12-07T11:35:56;11.63;;;7.32;;
60078;SDS011;45951;45.824;8.824;2022-12-07T11:42:23;12.25;;;8.10;;
60078;SDS011;45951;45.824;8.824;2022-12-07T11:48:33;12.52;;;7.93;;
60078;SDS011;45951;45.824;8.824;2022-12-07T11:54:40;10.98;;;7.32;;
60078;SDS011;45951;45.824;8.824;2022-12-07T12:00:42;10.07;;;6.60;;
60078;SDS011;45951;45.824;8.824;2022-12-07T12:06:43;11.73;;;7.70;;
60078;SDS011;45951;45.824;8.824;2022-12-07T12:19:06;12.68;;;7.93;;
60078;SDS011;45951;45.824;8.824;2022-12-07T12:43:45;10.27;;;7.32;;
60078;SDS011;45951;45.824;8.824;2022-12-07T12:50:12;11.02;;;8.23;;
60078;SDS011;45951;45.824;8.824;2022-12-07T12:56:33;11.13;;;6.88;;
60078;SDS011;45951;45.824;8.824;2022-12-07T13:02:47;11.13;;;7.90;;
60078;SDS011;45951;45.824;8.824;2022-12-07T13:08:50;10.32;;;7.55;;
60078;SDS011;45951;45.824;8.824;2022-12-07T13:14:52;10.93;;;7.60;;
60078;SDS011;45951;45.824;8.824;2022-12-07T13:20:55;11.32;;;7.60;;
60078;SDS011;45951;45.824;8.824;2022-12-07T13:27:08;10.80;;;7.80;;
60078;SDS011;45951;45.824;8.824;2022-12-07T13:33:10;13.27;;;8.82;;
60078;SDS011;45951;45.824;8.824;2022-12-07T13:39:16;16.73;;;10.23;;
60078;SDS011;45951;45.824;8.824;2022-12-07T13:45:29;12.43;;;9.95;;
60078;SDS011;45951;45.824;8.824;2022-12-07T13:51:50;13.45;;;9.18;;
60078;SDS011;45951;45.824;8.824;2022-12-07T13:57:51;11.20;;;8.07;;
60078;SDS011;45951;45.824;8.824;2022-12-07T14:03:52;12.73;;;8.45;;
60078;SDS011;45951;45.824;8.824;2022-12-07T14:09:56;13.77;;;9.40;;
60078;SDS011;45951;45.824;8.824;2022-12-07T14:16:00;16.77;;;11.27;;
60078;SDS011;45951;45.824;8.824;2022-12-07T14:22:08;16.33;;;11.07;;
60078;SDS011;45951;45.824;8.824;2022-12-07T14:28:29;14.52;;;10.02;;
60078;SDS011;45951;45.824;8.824;2022-12-07T14:34:33;15.90;;;9.75;;
60078;SDS011;45951;45.824;8.824;2022-12-07T14:40:34;15.45;;;9.45;;
60078;SDS011;45951;45.824;8.824;2022-12-07T14:46:34;13.68;;;9.65;;
60078;SDS011;45951;45.824;8.824;2022-12-07T14:52:34;11.65;;;8.77;;
60078;SDS011;45951;45.824;8.824;2022-12-07T14:58:35;13.05;;;9.82;;
60078;SDS011;45951;45.824;8.824;2022-12-07T15:04:35;29.38;;;16.80;;
60078;SDS011;45951;45.824;8.824;2022-12-07T15:10:35;14.13;;;9.80;;
60078;SDS011;45951;45.824;8.824;2022-12-07T15:16:39;13.52;;;8.82;;
60078;SDS011;45951;45.824;8.824;2022-12-07T15:29:01;11.27;;;7.97;;
60078;SDS011;45951;45.824;8.824;2022-12-07T15:35:01;16.13;;;9.50;;
60078;SDS011;45951;45.824;8.824;2022-12-07T15:41:02;12.40;;;8.02;;
60078;SDS011;45951;45.824;8.824;2022-12-07T15:47:03;13.23;;;9.52;;
60078;SDS011;45951;45.824;8.824;2022-12-07T15:53:04;12.50;;;7.80;;
60078;SDS011;45951;45.824;8.824;2022-12-07T15:59:04;17.25;;;8.70;;
60078;SDS011;45951;45.824;8.824;2022-12-07T16:05:05;16.45;;;9.18;;
60078;SDS011;45951;45.824;8.824;2022-12-07T16:11:06;17.67;;;10.27;;
60078;SDS011;45951;45.824;8.824;2022-12-07T16:17:07;15.73;;;11.07;;
60078;SDS011;45951;45.824;8.824;2022-12-07T16:23:08;20.05;;;11.88;;
60078;SDS011;45951;45.824;8.824;2022-12-07T16:29:10;21.33;;;12.30;;
60078;SDS011;45951;45.824;8.824;2022-12-07T16:35:12;17.83;;;12.43;;
60078;SDS011;45951;45.824;8.824;2022-12-07T16:41:12;21.35;;;13.95;;
60078;SDS011;45951;45.824;8.824;2022-12-07T16:47:16;20.25;;;13.95;;
60078;SDS011;45951;45.824;8.824;2022-12-07T16:53:45;24.45;;;15.38;;
60078;SDS011;45951;45.824;8.824;2022-12-07T16:59:46;22.90;;;16.40;;
60078;SDS011;45951;45.824;8.824;2022-12-07T17:05:46;22.60;;;16.15;;
60078;SDS011;45951;45.824;8.824;2022-12-07T17:11:47;23.10;;;16.17;;
60078;SDS011;45951;45.824;8.824;2022-12-07T17:17:54;24.67;;;17.33;;
60078;SDS011;45951;45.824;8.824;2022-12-07T17:23:57;24.80;;;18.23;;
60078;SDS011;45951;45.824;8.824;2022-12-07T17:29:58;25.17;;;18.27;;
60078;SDS011;45951;45.824;8.824;2022-12-07T17:42:29;27.13;;;18.27;;
60078;SDS011;45951;45.824;8.824;2022-12-07T17:48:36;25.80;;;18.88;;
60078;SDS011;45951;45.824;8.824;2022-12-07T17:54:36;27.17;;;19.33;;
60078;SDS011;45951;45.824;8.824;2022-12-07T18:00:37;27.63;;;18.70;;
60078;SDS011;45951;45.824;8.824;2022-12-07T18:06:41;24.98;;;16.80;;
60078;SDS011;45951;45.824;8.824;2022-12-07T18:12:42;25.52;;;17.80;;
60078;SDS011;45951;45.824;8.824;2022-12-07T18:18:42;24.45;;;17.25;;
60078;SDS011;45951;45.824;8.824;2022-12-07T18:24:43;25.83;;;17.13;;
60078;SDS011;45951;45.824;8.824;2022-12-07T18:30:44;22.67;;;14.55;;
60078;SDS011;45951;45.824;8.824;2022-12-07T18:36:51;22.35;;;14.52;;
60078;SDS011;45951;45.824;8.824;2022-12-07T18:42:52;21.52;;;14.60;;
60078;SDS011;45951;45.824;8.824;2022-12-07T18:48:53;20.40;;;13.60;;
60078;SDS011;45951;45.824;8.824;2022-12-07T18:54:55;17.75;;;13.50;;
60078;SDS011;45951;45.824;8.824;2022-12-07T19:00:56;22.45;;;13.98;;
60078;SDS011;45951;45.824;8.824;2022-12-07T19:06:57;19.25;;;13.00;;
60078;SDS011;45951;45.824;8.824;2022-12-07T19:12:57;21.67;;;13.52;;
60078;SDS011;45951;45.824;8.824;2022-12-07T19:18:58;21.42;;;13.55;;
60078;SDS011;45951;45.824;8.824;2022-12-07T19:24:58;20.60;;;12.35;;
60078;SDS011;45951;45.824;8.824;2022-12-07T19:30:58;17.97;;;12.53;;
60078;SDS011;45951;45.824;8.824;2022-12-07T19:36:59;18.70;;;12.65;;
60078;SDS011;45951;45.824;8.824;2022-12-07T19:42:59;16.73;;;11.80;;
60078;SDS011;45951;45.824;8.824;2022-12-07T19:48:59;15.93;;;10.38;;
60078;SDS011;45951;45.824;8.824;2022-12-07T19:55:00;17.25;;;10.55;;
60078;SDS011;45951;45.824;8.824;2022-12-07T20:01:01;16.65;;;10.90;;
60078;SDS011;45951;45.824;8.824;2022-12-07T20:07:02;14.70;;;10.13;;
60078;SDS011;45951;45.824;8.824;2022-12-07T20:13:05;14.95;;;10.68;;
60078;SDS011;45951;45.824;8.824;2022-12-07T20:19:25;17.05;;;10.80;;
60078;SDS011;45951;45.824;8.824;2022-12-07T20:25:26;14.27;;;10.05;;
60078;SDS011;45951;45.824;8.824;2022-12-07T20:31:26;13.88;;;9.57;;
60078;SDS011;45951;45.824;8.824;2022-12-07T20:37:26;13.80;;;9.30;;
60078;SDS011;45951;45.824;8.824;2022-12-07T20:43:27;16.02;;;10.25;;
60078;SDS011;45951;45.824;8.824;2022-12-07T20:49:28;13.93;;;9.45;;
60078;SDS011;45951;45.824;8.824;2022-12-07T20:55:28;12.60;;;9.23;;
60078;SDS011;45951;45.824;8.824;2022-12-07T21:01:28;16.20;;;11.68;;
60078;SDS011;45951;45.824;8.824;2022-12-07T21:07:29;15.32;;;10.70;;
60078;SDS011;45951;45.824;8.824;2022-12-07T21:13:30;18.38;;;10.95;;
60078;SDS011;45951;45.824;8.824;2022-12-07T21:19:31;15.48;;;11.50;;
60078;SDS011;45951;45.824;8.824;2022-12-07T21:25:32;16.45;;;11.55;;
60078;SDS011;45951;45.824;8.824;2022-12-07T21:31:33;14.40;;;10.95;;
60078;SDS011;45951;45.824;8.824;2022-12-07T21:37:33;18.92;;;12.38;;
60078;SDS011;45951;45.824;8.824;2022-12-07T21:43:34;14.98;;;9.88;;
60078;SDS011;45951;45.824;8.824;2022-12-07T21:49:34;13.03;;;9.70;;
60078;SDS011;45951;45.824;8.824;2022-12-07T21:55:42;13.90;;;9.93;;
60078;SDS011;45951;45.824;8.824;2022-12-07T22:01:43;12.65;;;9.40;;
60078;SDS011;45951;45.824;8.824;2022-12-07T22:07:47;12.75;;;9.10;;
60078;SDS011;45951;45.824;8.824;2022-12-07T22:13:47;12.80;;;8.40;;
60078;SDS011;45951;45.824;8.824;2022-12-07T22:20:06;10.68;;;7.28;;
60078;SDS011;45951;45.824;8.824;2022-12-07T22:26:07;11.40;;;7.60;;
60078;SDS011;45951;45.824;8.824;2022-12-07T22:32:10;10.68;;;7.43;;
60078;SDS011;45951;45.824;8.824;2022-12-07T22:38:10;11.27;;;6.85;;
60078;SDS011;45951;45.824;8.824;2022-12-07T22:44:11;11.02;;;6.72;;
60078;SDS011;45951;45.824;8.824;2022-12-07T22:50:11;10.50;;;7.43;;
60078;SDS011;45951;45.824;8.824;2022-12-07T22:56:12;11.82;;;8.00;;
60078;SDS011;45951;45.824;8.824;2022-12-07T23:02:12;11.77;;;7.50;;
60078;SDS011;45951;45.824;8.824;2022-12-07T23:08:12;11.60;;;7.18;;
60078;SDS011;45951;45.824;8.824;2022-12-07T23:14:21;10.35;;;6.35;;
60078;SDS011;45951;45.824;8.824;2022-12-07T23:20:23;12.25;;;7.15;;
60078;SDS011;45951;45.824;8.824;2022-12-07T23:26:24;9.37;;;6.13;;
60078;SDS011;45951;45.824;8.824;2022-12-07T23:32:25;8.73;;;6.07;;
60078;SDS011;45951;45.824;8.824;2022-12-07T23:38:25;9.18;;;6.00;;
60078;SDS011;45951;45.824;8.824;2022-12-07T23:44:25;9.15;;;6.40;;
60078;SDS011;45951;45.824;8.824;2022-12-07T23:50:26;10.30;;;6.57;;
60078;SDS011;45951;45.824;8.824;2022-12-07T23:56:27;10.98;;;6.03;;
